Time;durP1;ratioP1;P1;durP2;ratioP2;P2;SDS_P1;SDS_P2;PMS_P1;PMS_P2;Temp;Humidity;BMP_temperature;BMP_pressure;BME280_temperature;BME280_humidity;BME280_pressure;Samples;Min_cycle;Max_cycle;Signal;HPM_P1;HPM_P2
2021/03/01 00:01:35;;;;;;;;;;;12.60;99.90;;;12.05;100.00;100775.34;5032848;28;20454;-63
2021/03/01 00:04:03;;;;;;;;;;;12.60;99.90;;;12.04;100.00;100772.91;5032265;28;19932;-63
2021/03/01 00:06:30;;;;;;;;;;;12.60;99.90;;;12.03;100.00;100777.56;5033166;28;19925;-63
2021/03/01 00:08:57;;;;;;;;;;;12.60;99.90;;;12.01;100.00;100763.50;5032648;28;19932;-63
2021/03/01 00:11:24;;;;;;;;;;;12.60;99.90;;;11.99;100.00;100770.31;5032677;28;19975;-63
2021/03/01 00:13:52;;;;;;;;;;;12.60;99.90;;;12.01;100.00;100768.91;5032075;28;19964;-63
2021/03/01 00:16:19;;;;;;;;;;;12.60;99.90;;;12.02;100.00;100769.72;5032746;28;19925;-63
2021/03/01 00:18:46;;;;;;;;;;;12.60;99.90;;;12.02;100.00;100765.09;5033459;28;20053;-63
2021/03/01 00:21:14;;;;;;;;;;;12.60;99.90;;;11.97;100.00;100765.22;5033152;28;20051;-63
2021/03/01 00:23:41;;;;;;;;;;;12.60;99.90;;;11.96;100.00;100765.50;5033060;28;19959;-63
2021/03/01 00:26:10;;;;;;;;;;;12.60;99.90;;;11.93;100.00;100768.81;5032159;28;19992;-63
2021/03/01 00:28:37;;;;;;;;;;;12.50;99.90;;;11.91;100.00;100769.13;5032990;28;19990;-63
2021/03/01 00:31:04;;;;;;;;;;;12.50;99.90;;;11.98;100.00;100764.09;5032510;28;20482;-63
2021/03/01 00:33:31;;;;;;;;;;;12.60;99.90;;;12.05;100.00;100758.28;5032041;28;20011;-63
2021/03/01 00:35:58;;;;;;;;;;;12.60;99.90;;;12.08;100.00;100757.66;5032080;28;20412;-63
2021/03/01 00:38:27;;;;;;;;;;;12.70;99.90;;;12.13;100.00;100754.84;5032608;28;19925;-63
2021/03/01 00:40:55;;;;;;;;;;;12.70;99.90;;;12.15;100.00;100754.56;5032589;28;20245;-63
2021/03/01 00:43:22;;;;;;;;;;;12.70;99.90;;;12.18;100.00;100754.78;5033657;28;19932;-63
2021/03/01 00:45:50;;;;;;;;;;;12.70;99.90;;;12.19;100.00;100752.88;5035824;28;20357;-63
2021/03/01 00:48:17;;;;;;;;;;;12.70;99.90;;;12.14;100.00;100752.94;5036768;28;20364;-63
2021/03/01 00:50:44;;;;;;;;;;;12.70;99.90;;;12.11;100.00;100750.84;5037057;28;19932;-63
2021/03/01 00:53:11;;;;;;;;;;;12.70;99.90;;;12.10;100.00;100744.63;5036029;28;19925;-63
2021/03/01 00:55:39;;;;;;;;;;;12.70;99.90;;;12.10;100.00;100744.63;5036907;28;20395;-63
2021/03/01 00:58:07;;;;;;;;;;;12.70;99.90;;;12.07;100.00;100749.84;5037220;28;19937;-63
2021/03/01 01:00:34;;;;;;;;;;;12.60;99.90;;;12.01;100.00;100741.81;5036463;28;20366;-63
2021/03/01 01:03:01;;;;;;;;;;;12.50;99.90;;;11.93;100.00;100749.84;5035606;28;19933;-63
2021/03/01 01:05:29;;;;;;;;;;;12.50;99.90;;;11.86;100.00;100750.22;5036013;28;19925;-63
2021/03/01 01:07:56;;;;;;;;;;;12.40;99.90;;;11.72;100.00;100744.00;5036972;28;19936;-63
2021/03/01 01:10:23;;;;;;;;;;;12.30;99.90;;;11.67;100.00;100743.25;5036136;28;19975;-63
2021/03/01 01:12:52;;;;;;;;;;;12.20;99.90;;;11.63;100.00;100745.75;5035886;28;20217;-63
2021/03/01 01:15:19;;;;;;;;;;;12.20;99.90;;;11.62;100.00;100741.44;5036421;28;20402;-63
2021/03/01 01:17:46;;;;;;;;;;;12.20;99.90;;;11.56;100.00;100739.09;5036377;28;20323;-63
2021/03/01 01:20:14;;;;;;;;;;;12.10;99.90;;;11.50;100.00;100749.22;5037236;28;20651;-63
2021/03/01 01:22:41;;;;;;;;;;;12.10;99.90;;;11.31;100.00;100748.47;5036742;28;19925;-63
2021/03/01 01:25:12;;;;;;;;;;;11.90;99.90;;;11.19;100.00;100745.41;5035996;28;19925;-63
2021/03/01 01:27:39;;;;;;;;;;;11.80;99.90;;;11.27;100.00;100744.75;5036922;28;19975;-63
2021/03/01 01:30:10;;;;;;;;;;;11.80;99.90;;;11.20;100.00;100747.84;5037303;28;19929;-63
2021/03/01 01:32:37;;;;;;;;;;;11.80;99.90;;;11.14;100.00;100750.91;5035471;28;19925;-63
2021/03/01 01:35:06;;;;;;;;;;;11.70;99.90;;;11.12;100.00;100748.53;5035753;28;19925;-63
2021/03/01 01:37:33;;;;;;;;;;;11.70;99.90;;;11.07;100.00;100753.19;5035543;28;19929;-63
2021/03/01 01:40:00;;;;;;;;;;;11.70;99.90;;;11.03;100.00;100746.78;5035426;28;20367;-63
2021/03/01 01:42:28;;;;;;;;;;;11.60;99.90;;;11.08;100.00;100750.19;5035694;28;20367;-63
2021/03/01 01:44:55;;;;;;;;;;;11.60;99.90;;;11.14;100.00;100753.63;5034680;28;20396;-63
2021/03/01 01:47:24;;;;;;;;;;;11.70;99.90;;;11.18;100.00;100752.75;5035705;28;20401;-63
2021/03/01 01:49:51;;;;;;;;;;;11.70;99.90;;;11.26;100.00;100751.28;5035782;28;19968;-63
2021/03/01 01:52:19;;;;;;;;;;;11.80;99.90;;;11.26;100.00;100752.06;5035635;28;19979;-63
2021/03/01 01:54:46;;;;;;;;;;;11.80;99.90;;;11.21;100.00;100746.75;5034426;28;19936;-63
2021/03/01 01:57:13;;;;;;;;;;;11.80;99.90;;;11.25;100.00;100755.06;5035214;28;20024;-63
2021/03/01 01:59:41;;;;;;;;;;;11.80;99.90;;;11.37;100.00;100748.09;5035571;28;19975;-63
2021/03/01 02:02:09;;;;;;;;;;;11.90;99.90;;;11.45;100.00;100747.44;5035033;28;19975;-63
2021/03/01 02:04:41;;;;;;;;;;;12.00;99.90;;;11.44;100.00;100753.13;5034450;28;20437;-63
2021/03/01 02:07:11;;;;;;;;;;;12.00;99.90;;;11.39;100.00;100751.31;5035134;28;20015;-63
2021/03/01 02:09:59;;;;;;;;;;;12.00;99.90;;;11.40;100.00;100755.63;5035407;28;19948;-62
2021/03/01 02:12:35;;;;;;;;;;;12.00;99.90;;;11.46;100.00;100756.34;5035575;28;20071;-62
2021/03/01 02:15:06;;;;;;;;;;;12.00;99.90;;;11.50;100.00;100757.34;5034498;28;19957;-63
2021/03/01 02:17:33;;;;;;;;;;;12.10;99.90;;;11.53;100.00;100752.16;5035805;28;19975;-63
2021/03/01 02:20:04;;;;;;;;;;;12.10;99.90;;;11.59;100.00;100754.75;5035341;28;19964;-63
2021/03/01 02:22:32;;;;;;;;;;;12.20;99.90;;;11.67;100.00;100756.81;5035175;28;19929;-63
2021/03/01 02:25:03;;;;;;;;;;;12.20;99.90;;;11.72;100.00;100754.84;5034205;28;20365;-63
2021/03/01 02:27:32;;;;;;;;;;;12.30;99.90;;;11.76;100.00;100752.34;5035196;28;19935;-63
2021/03/01 02:30:03;;;;;;;;;;;12.30;99.90;;;11.75;100.00;100748.81;5035413;28;19972;-63
2021/03/01 02:32:34;;;;;;;;;;;12.40;99.90;;;11.77;100.00;100748.50;5035110;28;20361;-62
2021/03/01 02:35:01;;;;;;;;;;;12.40;99.90;;;11.78;100.00;100739.28;5034694;28;19961;-63
2021/03/01 02:37:29;;;;;;;;;;;12.40;99.90;;;11.82;100.00;100743.81;5034739;28;19933;-63
2021/03/01 02:39:57;;;;;;;;;;;12.40;99.90;;;11.87;100.00;100745.63;5035169;28;19968;-63
2021/03/01 02:42:26;;;;;;;;;;;12.40;99.90;;;11.87;100.00;100737.50;5034960;28;19964;-63
2021/03/01 02:44:54;;;;;;;;;;;12.40;99.90;;;11.81;100.00;100744.09;5033617;28;20020;-63
2021/03/01 02:47:23;;;;;;;;;;;12.40;99.90;;;11.80;100.00;100734.34;5035130;28;20047;-63
2021/03/01 02:49:52;;;;;;;;;;;12.40;99.90;;;11.78;100.00;100725.75;5034473;28;20287;-63
2021/03/01 02:52:20;;;;;;;;;;;12.40;99.90;;;11.74;100.00;100725.53;5034520;28;19925;-63
2021/03/01 02:54:48;;;;;;;;;;;12.40;99.90;;;11.75;100.00;100726.34;5033992;28;19947;-63
2021/03/01 02:57:17;;;;;;;;;;;12.40;99.90;;;11.74;100.00;100730.94;5034543;28;19925;-63
2021/03/01 02:59:46;;;;;;;;;;;12.40;99.90;;;11.79;100.00;100733.59;5034417;28;19925;-63
2021/03/01 03:02:14;;;;;;;;;;;12.40;99.90;;;11.80;100.00;100724.34;5034398;28;20024;-63
2021/03/01 03:04:42;;;;;;;;;;;12.40;99.90;;;11.79;100.00;100725.47;5033553;28;19948;-63
2021/03/01 03:07:10;;;;;;;;;;;12.40;99.90;;;11.82;100.00;100729.47;5034236;28;19925;-63
2021/03/01 03:09:37;;;;;;;;;;;12.40;99.90;;;11.81;100.00;100725.94;5034105;28;20386;-63
2021/03/01 03:12:06;;;;;;;;;;;12.40;99.90;;;11.81;100.00;100717.81;5034094;28;19929;-63
2021/03/01 03:14:35;;;;;;;;;;;12.40;99.90;;;11.82;100.00;100719.44;5033532;28;20028;-63
2021/03/01 03:17:03;;;;;;;;;;;12.40;99.90;;;11.83;100.00;100715.59;5034872;28;19925;-63
2021/03/01 03:19:30;;;;;;;;;;;12.40;99.90;;;11.80;100.00;100718.91;5034568;28;19925;-63
2021/03/01 03:21:59;;;;;;;;;;;12.40;99.90;;;11.75;100.00;100716.31;5034145;28;19976;-63
2021/03/01 03:24:27;;;;;;;;;;;12.30;99.90;;;11.69;100.00;100716.66;5032803;28;19933;-63
2021/03/01 03:26:54;;;;;;;;;;;12.30;99.90;;;11.75;100.00;100724.44;5034193;28;19965;-63
2021/03/01 03:29:21;;;;;;;;;;;12.30;99.90;;;11.75;100.00;100727.16;5034686;28;19948;-63
2021/03/01 03:31:50;;;;;;;;;;;12.30;99.90;;;11.76;100.00;100723.34;5033901;28;19968;-63
2021/03/01 03:34:17;;;;;;;;;;;12.30;99.90;;;11.77;100.00;100722.22;5032922;28;19957;-63
2021/03/01 03:36:50;;;;;;;;;;;12.40;99.90;;;11.79;100.00;100721.94;5034259;28;20013;-63
2021/03/01 03:39:18;;;;;;;;;;;12.40;99.90;;;11.87;100.00;100719.34;5033997;28;20085;-63
2021/03/01 03:41:47;;;;;;;;;;;12.50;99.90;;;11.91;100.00;100720.34;5034459;28;20027;-63
2021/03/01 03:44:16;;;;;;;;;;;12.50;99.90;;;11.93;100.00;100718.13;5033267;28;19937;-63
2021/03/01 03:46:44;;;;;;;;;;;12.50;99.90;;;11.97;100.00;100718.34;5034195;28;20012;-63
2021/03/01 03:49:14;;;;;;;;;;;12.60;99.90;;;12.00;100.00;100726.66;5034160;28;19983;-63
2021/03/01 03:51:43;;;;;;;;;;;12.60;99.90;;;12.02;100.00;100729.06;5033441;28;19935;-63
2021/03/01 03:54:15;;;;;;;;;;;12.60;99.90;;;12.00;100.00;100721.25;5032765;28;20424;-62
2021/03/01 03:56:48;;;;;;;;;;;12.60;99.90;;;12.05;100.00;100729.28;5033789;28;19965;-62
2021/03/01 03:59:17;;;;;;;;;;;12.60;99.90;;;12.08;100.00;100725.16;5033337;28;20302;-63
2021/03/01 04:01:44;;;;;;;;;;;12.70;99.90;;;12.13;100.00;100730.47;5033584;28;20374;-63
2021/03/01 04:04:13;;;;;;;;;;;12.70;99.90;;;12.19;100.00;100731.97;5032231;28;20047;-63
2021/03/01 04:06:41;;;;;;;;;;;12.80;99.90;;;12.25;100.00;100729.97;5033745;28;19979;-63
2021/03/01 04:09:10;;;;;;;;;;;12.80;99.90;;;12.28;100.00;100730.16;5034011;28;19961;-63
2021/03/01 04:11:41;;;;;;;;;;;12.80;99.90;;;12.33;100.00;100727.34;5033647;28;19925;-63
2021/03/01 04:14:09;;;;;;;;;;;12.90;99.90;;;12.33;100.00;100723.81;5032151;28;20394;-63
2021/03/01 04:16:37;;;;;;;;;;;12.90;99.90;;;12.28;100.00;100727.44;5033726;28;20020;-63
2021/03/01 04:19:07;;;;;;;;;;;12.90;99.90;;;12.24;100.00;100731.06;5033180;28;19925;-63
2021/03/01 04:21:36;;;;;;;;;;;12.90;99.90;;;12.25;100.00;100729.97;5032847;28;19929;-63
2021/03/01 04:24:05;;;;;;;;;;;12.80;99.90;;;12.26;100.00;100718.00;5031556;28;20024;-63
2021/03/01 04:26:32;;;;;;;;;;;12.90;99.90;;;12.29;100.00;100725.53;5032076;28;19925;-63
2021/03/01 04:29:00;;;;;;;;;;;12.90;99.90;;;12.30;100.00;100727.94;5032761;28;19983;-63
2021/03/01 04:31:28;;;;;;;;;;;12.90;99.90;;;12.37;100.00;100727.53;5032997;28;19984;-63
2021/03/01 04:33:56;;;;;;;;;;;13.00;99.90;;;12.37;100.00;100714.78;5031603;28;20039;-63
2021/03/01 04:36:24;;;;;;;;;;;13.00;99.90;;;12.39;100.00;100719.91;5032324;28;20020;-63
2021/03/01 04:38:52;;;;;;;;;;;13.00;99.90;;;12.43;100.00;100715.47;5033573;28;19925;-63
2021/03/01 04:41:20;;;;;;;;;;;13.00;99.90;;;12.51;100.00;100712.03;5032828;28;19972;-63
2021/03/01 04:43:50;;;;;;;;;;;13.10;99.90;;;12.54;100.00;100706.00;5031914;28;19930;-63
2021/03/01 04:46:18;;;;;;;;;;;13.10;99.90;;;12.63;100.00;100708.78;5032605;28;19933;-63
2021/03/01 04:48:45;;;;;;;;;;;13.20;99.90;;;12.66;100.00;100708.19;5033101;28;19925;-63
2021/03/01 04:51:13;;;;;;;;;;;13.20;99.90;;;12.67;100.00;100713.31;5032768;28;19953;-63
2021/03/01 04:53:41;;;;;;;;;;;13.20;99.90;;;12.66;100.00;100714.41;5031783;28;19925;-63
2021/03/01 04:56:10;;;;;;;;;;;13.20;99.90;;;12.66;100.00;100722.56;5031946;28;19932;-63
2021/03/01 04:58:38;;;;;;;;;;;13.20;99.90;;;12.62;100.00;100713.41;5032465;28;19925;-63
2021/03/01 05:01:07;;;;;;;;;;;13.20;99.90;;;12.59;100.00;100716.72;5032903;28;19929;-62
2021/03/01 05:03:34;;;;;;;;;;;13.20;99.90;;;12.56;100.00;100706.50;5031800;28;20375;-63
2021/03/01 05:06:02;;;;;;;;;;;13.20;99.90;;;12.50;100.00;100711.22;5031919;28;20329;-63
2021/03/01 05:08:31;;;;;;;;;;;13.20;99.90;;;12.45;100.00;100711.34;5032866;28;19933;-63
2021/03/01 05:10:58;;;;;;;;;;;13.10;99.90;;;12.43;100.00;100705.41;5032382;28;19960;-63
2021/03/01 05:13:26;;;;;;;;;;;13.10;99.90;;;12.40;100.00;100711.44;5031201;28;19965;-63
2021/03/01 05:15:53;;;;;;;;;;;13.00;99.90;;;12.33;100.00;100710.28;5031772;28;19956;-63
2021/03/01 05:18:20;;;;;;;;;;;12.90;99.90;;;12.27;100.00;100706.06;5032606;28;19982;-63
2021/03/01 05:20:47;;;;;;;;;;;12.90;99.90;;;12.24;100.00;100707.47;5032806;28;20416;-63
2021/03/01 05:23:15;;;;;;;;;;;12.90;99.90;;;12.19;100.00;100706.78;5031617;28;19972;-63
2021/03/01 05:25:42;;;;;;;;;;;12.80;99.90;;;12.18;100.00;100700.56;5031865;28;19995;-63
2021/03/01 05:28:10;;;;;;;;;;;12.80;99.90;;;12.15;100.00;100711.19;5032728;28;19932;-63
2021/03/01 05:30:38;;;;;;;;;;;12.80;99.90;;;12.10;100.00;100705.88;5035872;28;19972;-63
2021/03/01 05:33:06;;;;;;;;;;;12.70;99.90;;;12.09;100.00;100699.66;5035418;28;19953;-63
2021/03/01 05:35:34;;;;;;;;;;;12.70;99.90;;;12.09;100.00;100709.69;5035272;28;20428;-63
2021/03/01 05:38:01;;;;;;;;;;;12.70;99.90;;;12.07;100.00;100709.97;5035656;28;19975;-63
2021/03/01 05:40:28;;;;;;;;;;;12.70;99.90;;;12.03;100.00;100706.28;5036074;28;20036;-63
2021/03/01 05:42:56;;;;;;;;;;;12.70;99.90;;;12.01;100.00;100703.88;5034637;28;19964;-63
2021/03/01 05:45:24;;;;;;;;;;;12.60;99.90;;;12.00;100.00;100706.91;5034906;28;19973;-63
2021/03/01 05:47:53;;;;;;;;;;;12.60;99.90;;;11.98;100.00;100700.94;5035242;28;19971;-63
2021/03/01 05:50:20;;;;;;;;;;;12.60;99.90;;;11.95;100.00;100699.66;5035543;28;20386;-63
2021/03/01 05:52:49;;;;;;;;;;;12.50;99.90;;;11.89;100.00;100697.34;5035655;28;19926;-63
2021/03/01 05:55:16;;;;;;;;;;;12.50;99.90;;;11.80;100.00;100705.38;5035104;28;20023;-63
2021/03/01 05:57:45;;;;;;;;;;;12.40;99.90;;;11.72;100.00;100702.56;5035332;28;19936;-63
2021/03/01 06:00:13;;;;;;;;;;;12.40;99.90;;;11.68;100.00;100715.88;5035353;28;20026;-62
2021/03/01 06:02:41;;;;;;;;;;;12.30;99.90;;;11.72;100.00;100719.63;5034998;28;19932;-65
2021/03/01 06:05:11;;;;;;;;;;;12.40;99.90;;;11.77;100.00;100711.38;5034050;28;19929;-65
2021/03/01 06:07:39;;;;;;;;;;;12.40;99.90;;;11.82;100.00;100708.59;5035430;28;19925;-63
2021/03/01 06:10:07;;;;;;;;;;;12.40;99.90;;;11.85;100.00;100712.59;5035513;28;19992;-63
2021/03/01 06:12:34;;;;;;;;;;;12.40;99.90;;;11.88;100.00;100715.53;5035425;28;20466;-63
2021/03/01 06:15:01;;;;;;;;;;;12.50;99.90;;;11.86;100.00;100714.19;5034128;28;19968;-63
2021/03/01 06:17:29;;;;;;;;;;;12.40;99.90;;;11.85;100.00;100715.31;5035166;28;19948;-63
2021/03/01 06:19:58;;;;;;;;;;;12.40;99.90;;;11.83;100.00;100721.03;5036222;28;19968;-63
2021/03/01 06:22:41;;;;;;;;;;;12.40;99.90;;;11.78;100.00;100723.84;5035016;28;20437;-63
2021/03/01 06:25:12;;;;;;;;;;;12.40;99.90;;;11.76;100.00;100725.25;5034358;28;19936;-63
2021/03/01 06:27:47;;;;;;;;;;;12.40;99.90;;;11.73;100.00;100725.84;5035077;28;19932;-63
2021/03/01 06:30:16;;;;;;;;;;;12.30;99.90;;;11.71;100.00;100728.03;5034796;28;20284;-63
2021/03/01 06:32:43;;;;;;;;;;;12.30;99.90;;;11.66;100.00;100739.75;5034841;28;19960;-63
2021/03/01 06:35:31;;;;;;;;;;;12.20;99.90;;;11.60;100.00;100732.81;5034155;28;19963;-63
2021/03/01 06:38:18;;;;;;;;;;;12.20;99.90;;;11.58;100.00;100740.41;5035051;28;19932;-63
2021/03/01 06:41:04;;;;;;;;;;;12.20;99.90;;;11.55;100.00;100743.72;5034240;28;20279;-64
2021/03/01 06:43:31;;;;;;;;;;;12.20;99.90;;;11.53;100.00;100735.09;5033756;28;20027;-64
2021/03/01 06:46:07;;;;;;;;;;;12.20;99.90;;;11.56;100.00;100737.22;5033657;28;19921;-64
2021/03/01 06:48:35;;;;;;;;;;;12.20;99.90;;;11.63;100.00;100739.53;5034537;28;19979;-64
2021/03/01 06:51:02;;;;;;;;;;;12.20;99.90;;;11.62;100.00;100736.03;5034666;28;19971;-64
2021/03/01 06:53:30;;;;;;;;;;;12.20;99.90;;;11.63;100.00;100731.41;5033762;28;19968;-64
2021/03/01 06:56:00;;;;;;;;;;;12.20;99.90;;;11.63;100.00;100734.13;5033947;28;19921;-64
2021/03/01 06:58:28;;;;;;;;;;;12.20;99.90;;;11.62;100.00;100741.44;5034228;28;19971;-64
2021/03/01 07:01:03;;;;;;;;;;;12.20;99.90;;;11.60;100.00;100740.13;5034212;28;20023;-64
2021/03/01 07:03:31;;;;;;;;;;;12.20;99.90;;;11.65;100.00;100738.13;5033325;28;20371;-64
2021/03/01 07:06:00;;;;;;;;;;;12.20;99.90;;;11.64;100.00;100746.56;5034053;28;19921;-64
2021/03/01 07:08:49;;;;;;;;;;;12.20;99.90;;;11.63;100.00;100744.94;5034411;28;20287;-64
2021/03/01 07:11:28;;;;;;;;;;;12.20;99.90;;;11.68;100.00;100742.94;5030016;28;19979;-63
2021/03/01 07:13:58;;;;;;;;;;;12.20;99.90;;;11.69;100.00;100741.84;5033162;28;19933;-63
2021/03/01 07:16:25;;;;;;;;;;;12.30;99.90;;;11.69;100.00;100749.97;5034362;28;19925;-63
2021/03/01 07:18:53;;;;;;;;;;;12.30;99.90;;;11.71;100.00;100744.28;5034072;28;20426;-62
2021/03/01 07:21:20;;;;;;;;;;;12.30;99.90;;;11.75;100.00;100748.00;5034350;28;20004;-63
2021/03/01 07:23:49;;;;;;;;;;;12.30;99.90;;;11.78;100.00;100750.94;5033085;28;19956;-63
2021/03/01 07:26:18;;;;;;;;;;;12.40;99.90;;;11.85;100.00;100750.53;5033673;28;19925;-63
2021/03/01 07:28:50;;;;;;;;;;;12.40;99.90;;;11.95;100.00;100753.84;5033708;28;19931;-63
2021/03/01 07:31:19;;;;;;;;;;;12.50;99.90;;;12.01;100.00;100749.94;5033809;28;19929;-63
2021/03/01 07:33:46;;;;;;;;;;;12.60;99.90;;;12.18;100.00;100754.78;5033028;28;19929;-63
2021/03/01 07:36:14;;;;;;;;;;;12.70;99.90;;;12.43;100.00;100758.88;5033418;28;19925;-63
2021/03/01 07:38:41;;;;;;;;;;;12.90;99.90;;;12.51;100.00;100766.28;5034484;28;19961;-63
2021/03/01 07:41:09;;;;;;;;;;;13.00;99.90;;;12.44;100.00;100761.25;5034481;28;19926;-63
2021/03/01 07:43:39;;;;;;;;;;;13.00;99.90;;;12.43;100.00;100764.31;5033462;28;20075;-64
2021/03/01 07:46:07;;;;;;;;;;;12.90;99.90;;;12.54;100.00;100769.19;5033105;28;19932;-63
2021/03/01 07:48:36;;;;;;;;;;;13.00;99.90;;;12.72;100.00;100764.75;5034004;28;19963;-63
2021/03/01 07:51:03;;;;;;;;;;;13.10;99.90;;;12.86;100.00;100765.50;5033790;28;19932;-63
2021/03/01 07:53:50;;;;;;;;;;;13.20;99.90;;;13.07;100.00;100768.56;5032225;28;19929;-63
2021/03/01 07:56:46;;;;;;;;;;;13.40;99.90;;;13.33;100.00;100766.06;5033383;28;19925;-63
2021/03/01 07:59:26;;;;;;;;;;;13.60;99.90;;;13.38;100.00;100768.66;5033527;28;19964;-63
2021/03/01 08:02:09;;;;;;;;;;;13.80;99.90;;;13.68;99.12;100770.59;5033167;28;20075;-63
2021/03/01 08:04:36;;;;;;;;;;;14.00;99.90;;;13.92;96.03;100775.69;5032204;28;19991;-63
2021/03/01 08:07:04;;;;;;;;;;;14.20;99.90;;;13.97;95.40;100773.63;5033035;28;19976;-63
2021/03/01 08:09:47;;;;;;;;;;;14.40;99.90;;;14.03;95.60;100772.38;5033393;28;19964;-63
2021/03/01 08:12:58;;;;;;;;;;;14.50;99.90;;;14.17;94.45;100781.22;5033077;28;19944;-63
2021/03/01 08:15:30;;;;;;;;;;;14.60;99.90;;;14.35;93.18;100773.16;5032487;28;20294;-65
2021/03/01 08:17:58;;;;;;;;;;;14.80;99.90;;;14.54;91.67;100776.41;5032723;28;20392;-63
2021/03/01 08:20:36;;;;;;;;;;;15.00;99.90;;;14.69;90.41;100773.22;5032485;28;19925;-63
2021/03/01 08:23:20;;;;;;;;;;;15.10;99.90;;;14.91;89.61;100777.75;5032084;28;19972;-63
2021/03/01 08:25:55;;;;;;;;;;;15.30;99.90;;;15.03;89.44;100780.63;5032067;28;20355;-63
2021/03/01 08:28:45;;;;;;;;;;;15.50;99.90;;;15.15;87.94;100776.16;5033084;28;19932;-63
2021/03/01 08:31:34;;;;;;;;;;;15.60;99.90;;;15.19;86.96;100782.56;5033094;28;19960;-63
2021/03/01 08:34:35;;;;;;;;;;;15.70;99.90;;;15.36;87.60;100781.72;5027576;28;19925;-63
2021/03/01 08:37:04;;;;;;;;;;;15.80;99.90;;;15.45;86.67;100787.16;5032901;28;19960;-63
2021/03/01 08:40:00;;;;;;;;;;;15.90;99.90;;;15.63;85.62;100784.13;5032992;28;20318;-63
2021/03/01 08:42:47;;;;;;;;;;;16.10;99.90;;;15.70;84.88;100789.09;5032899;28;19929;-63
2021/03/01 08:45:22;;;;;;;;;;;16.20;99.90;;;15.81;85.64;100790.34;5031660;28;20006;-63
2021/03/01 08:47:51;;;;;;;;;;;16.20;99.90;;;15.87;83.81;100786.31;5032825;28;20343;-65
2021/03/01 08:50:26;;;;;;;;;;;16.40;99.90;;;15.88;85.02;100796.09;5033229;28;19972;-63
2021/03/01 08:52:53;;;;;;;;;;;16.30;99.90;;;16.14;84.34;100791.34;5032745;28;20478;-63
2021/03/01 08:55:21;;;;;;;;;;;16.50;99.90;;;16.33;81.52;100793.66;5032121;28;19961;-63
2021/03/01 08:57:56;;;;;;;;;;;16.70;99.90;;;16.33;83.11;100796.41;5032966;28;20353;-63
2021/03/01 09:00:25;;;;;;;;;;;16.80;99.90;;;16.25;80.34;100808.97;5032393;28;19983;-65
2021/03/01 09:03:22;;;;;;;;;;;16.80;99.90;;;16.30;80.69;100802.50;5031416;28;20019;-63
2021/03/01 09:05:50;;;;;;;;;;;16.80;99.90;;;16.38;80.57;100805.19;5036355;28;19925;-63
2021/03/01 09:08:25;;;;;;;;;;;16.90;99.90;;;16.51;81.59;100806.09;5036918;28;19951;-63
2021/03/01 09:10:53;;;;;;;;;;;17.00;99.90;;;16.85;80.78;100795.00;5036813;28;20394;-65
2021/03/01 09:13:21;;;;;;;;;;;17.30;99.90;;;16.60;78.69;100808.81;5035633;28;19952;-64
2021/03/01 09:15:49;;;;;;;;;;;;;;;16.64;80.67;100807.81;5036093;28;20367;-65
2021/03/01 09:18:17;;;;;;;;;;;17.20;99.90;;;17.01;79.30;100800.66;5036776;28;19929;-63
2021/03/01 09:20:47;;;;;;;;;;;17.40;99.90;;;17.00;76.38;100803.72;5036381;28;19925;-65
2021/03/01 09:23:14;;;;;;;;;;;17.50;99.90;;;16.90;75.89;100802.97;5035523;28;19956;-64
2021/03/01 09:25:42;;;;;;;;;;;17.40;99.90;;;16.84;77.22;100803.53;5035494;28;19929;-63
2021/03/01 09:28:09;;;;;;;;;;;17.40;99.90;;;17.05;77.72;100807.06;5036380;28;19964;-63
2021/03/01 09:30:36;;;;;;;;;;;;;;;17.31;75.70;100804.91;5036071;28;19987;-63
2021/03/01 09:33:06;;;;;;;;;;;17.70;99.90;;;17.45;74.95;100804.63;5035084;28;19968;-64
2021/03/01 09:35:35;;;;;;;;;;;17.70;99.90;;;17.22;73.28;100806.94;5035121;28;20313;-64
2021/03/01 09:38:03;;;;;;;;;;;17.70;99.90;;;17.03;75.17;100809.31;5035374;28;20028;-64
2021/03/01 09:40:31;;;;;;;;;;;17.70;99.90;;;17.25;74.88;100802.72;5035620;28;19983;-63
2021/03/01 09:43:03;;;;;;;;;;;17.70;99.90;;;17.23;75.05;100811.28;5035048;28;20378;-63
2021/03/01 09:45:32;;;;;;;;;;;17.80;99.90;;;17.46;74.14;100809.78;5035365;28;19936;-64
2021/03/01 09:48:01;;;;;;;;;;;17.80;99.90;;;17.36;73.38;100812.09;5035886;28;19929;-64
2021/03/01 09:50:30;;;;;;;;;;;17.90;99.90;;;17.32;74.42;100817.47;5035730;28;20287;-65
2021/03/01 09:52:57;;;;;;;;;;;17.80;99.90;;;17.32;73.62;100828.41;5034587;28;20117;-64
2021/03/01 09:55:25;;;;;;;;;;;17.80;99.90;;;17.45;72.81;100819.09;5034424;28;19960;-65
2021/03/01 09:57:52;;;;;;;;;;;17.90;99.90;;;17.68;73.71;100821.50;5035421;28;20027;-64
2021/03/01 10:00:28;;;;;;;;;;;18.10;99.90;;;17.82;71.17;100817.31;5035046;28;19925;-64
2021/03/01 10:02:56;;;;;;;;;;;18.20;99.90;;;17.90;67.64;100819.16;5034186;28;19929;-65
2021/03/01 10:05:23;;;;;;;;;;;18.20;99.90;;;17.89;71.13;100820.31;5034383;28;19987;-64
2021/03/01 10:07:59;;;;;;;;;;;18.30;99.90;;;17.72;70.00;100819.69;5035015;28;20428;-64
2021/03/01 10:10:34;;;;;;;;;;;18.20;99.90;;;17.93;70.30;100818.47;5034861;28;19968;-64
2021/03/01 10:13:01;;;;;;;;;;;18.20;99.90;;;17.74;68.67;100822.88;5035781;28;19996;-64
2021/03/01 10:15:28;;;;;;;;;;;18.30;99.90;;;17.88;69.91;100820.63;5034709;28;19925;-65
2021/03/01 10:18:06;;;;;;;;;;;18.30;99.90;;;18.05;69.09;100823.19;5035887;28;19952;-65
2021/03/01 10:20:34;;;;;;;;;;;18.50;99.90;;;18.03;69.84;100830.94;5035576;28;19936;-65
2021/03/01 10:23:04;;;;;;;;;;;18.40;99.90;;;18.15;70.35;100822.72;5034413;28;19932;-65
2021/03/01 10:25:36;;;;;;;;;;;18.60;99.90;;;18.13;65.43;100833.22;5034648;28;20030;-65
2021/03/01 10:28:06;;;;;;;;;;;18.60;99.90;;;18.01;66.06;100833.22;5035420;28;20030;-64
2021/03/01 10:30:34;;;;;;;;;;;18.50;99.90;;;18.17;64.92;100834.16;5034516;28;20035;-65
2021/03/01 10:33:06;;;;;;;;;;;18.50;99.90;;;18.41;65.05;100836.13;5034149;28;19929;-63
2021/03/01 10:35:34;;;;;;;;;;;18.60;99.90;;;18.68;64.54;100835.47;5034869;28;20306;-63
2021/03/01 10:38:06;;;;;;;;;;;18.90;99.90;;;18.92;64.73;100835.44;5035588;28;19975;-63
2021/03/01 10:40:37;;;;;;;;;;;19.20;99.90;;;19.12;63.39;100838.38;5035334;28;20020;-63
2021/03/01 10:43:11;;;;;;;;;;;19.40;99.90;;;19.22;64.49;100838.66;5034738;28;20040;-65
2021/03/01 10:45:42;;;;;;;;;;;19.50;99.90;;;18.81;63.47;100841.72;5034355;28;20040;-64
2021/03/01 10:48:10;;;;;;;;;;;19.30;99.90;;;18.54;66.40;100845.97;5035223;28;19925;-64
2021/03/01 10:50:38;;;;;;;;;;;19.10;99.90;;;18.21;67.02;100846.00;5035020;28;20402;-65
2021/03/01 10:53:06;;;;;;;;;;;18.80;99.90;;;17.99;68.25;100849.19;5034319;28;19963;-65
2021/03/01 10:55:33;;;;;;;;;;;18.60;99.90;;;17.77;68.74;100855.03;5034825;28;19999;-64
2021/03/01 10:58:00;;;;;;;;;;;18.40;99.90;;;17.68;69.39;100846.91;5035047;28;19957;-65
2021/03/01 11:00:27;;;;;;;;;;;18.30;99.90;;;17.63;69.60;100847.09;5035467;28;20357;-64
2021/03/01 11:02:55;;;;;;;;;;;18.20;99.90;;;17.61;69.61;100851.31;5034225;28;20237;-64
2021/03/01 11:05:22;;;;;;;;;;;18.20;99.90;;;17.63;71.33;100851.81;5034295;28;20288;-65
2021/03/01 11:07:49;;;;;;;;;;;18.30;99.90;;;17.63;72.97;100849.84;5034819;28;20031;-65
2021/03/01 11:10:17;;;;;;;;;;;18.30;99.90;;;17.46;74.73;100849.97;5034656;28;19926;-65
2021/03/01 11:12:44;;;;;;;;;;;18.10;99.90;;;17.40;76.63;100857.59;5034052;28;19988;-64
2021/03/01 11:15:13;;;;;;;;;;;18.10;99.90;;;17.36;76.71;100853.09;5033486;28;19925;-65
2021/03/01 11:17:40;;;;;;;;;;;18.00;99.90;;;17.29;77.04;100847.41;5034819;28;19929;-64